TimePST,TemperatureF,Dew PointF,Humidity,Sea Level PressureIn,VisibilityMPH,Wind Direction,Wind SpeedMPH,Gust SpeedMPH,PrecipitationIn,Events,Conditions,WindDirDegrees,DateUTC
12:53 AM,39.9,30.9,70,30.17,10.0,ESE,3.5,-,N/A,,Scattered Clouds,120,2012-12-29 08:53:00
1:53 AM,39.0,32.0,76,30.18,10.0,SSE,3.5,-,N/A,,Overcast,150,2012-12-29 09:53:00
2:53 AM,39.9,32.0,73,30.19,10.0,SSE,3.5,-,N/A,,Overcast,160,2012-12-29 10:53:00
3:53 AM,39.0,32.0,76,30.18,10.0,SE,4.6,-,N/A,,Overcast,140,2012-12-29 11:53:00
4:53 AM,39.0,32.0,76,30.18,10.0,SE,5.8,-,0.00,,Overcast,140,2012-12-29 12:53:00
5:53 AM,39.9,30.9,70,30.18,10.0,SSE,4.6,-,N/A,,Overcast,150,2012-12-29 13:53:00
6:53 AM,39.9,32.0,73,30.19,10.0,Calm,Calm,-,0.00,,Overcast,0,2012-12-29 14:53:00
7:53 AM,39.9,30.9,70,30.19,10.0,Calm,Calm,-,0.00,Rain,Light Rain,0,2012-12-29 15:53:00
8:53 AM,39.9,33.1,77,30.19,10.0,Calm,Calm,-,0.01,Rain,Light Rain,0,2012-12-29 16:53:00
9:53 AM,41.0,33.1,73,30.21,10.0,Calm,Calm,-,0.00,,Overcast,0,2012-12-29 17:53:00
10:22 AM,42.8,32.0,66,30.21,10.0,SE,3.5,-,0.00,Rain,Light Rain,140,2012-12-29 18:22:00
10:53 AM,42.1,34.0,73,30.19,10.0,SSE,6.9,-,0.00,Rain,Light Rain,150,2012-12-29 18:53:00
11:53 AM,42.1,33.1,70,30.18,10.0,SSE,3.5,-,0.00,,Overcast,160,2012-12-29 19:53:00
12:53 PM,43.0,35.1,74,30.17,10.0,Calm,Calm,-,0.01,Rain,Light Rain,0,2012-12-29 20:53:00
1:53 PM,42.1,36.0,79,30.16,10.0,SSE,4.6,-,0.02,Rain,Light Rain,150,2012-12-29 21:53:00
2:49 PM,42.8,35.6,76,30.16,10.0,ESE,3.5,-,0.00,Rain,Light Rain,120,2012-12-29 22:49:00
2:53 PM,42.8,33.8,70,30.16,10.0,SE,3.5,-,N/A,,Overcast,130,2012-12-29 22:53:00
3:53 PM,42.1,36.0,79,30.16,10.0,ESE,3.5,-,0.00,Rain,Light Rain,110,2012-12-29 23:53:00
4:53 PM,41.0,36.0,82,30.17,10.0,Calm,Calm,-,0.00,,Overcast,0,2012-12-30 00:53:00
5:53 PM,42.1,36.0,79,30.17,10.0,Calm,Calm,-,N/A,,Overcast,0,2012-12-30 01:53:00
6:04 PM,42.8,35.6,76,30.18,10.0,Calm,Calm,-,N/A,,Overcast,0,2012-12-30 02:04:00
6:53 PM,41.0,36.0,82,30.18,10.0,Calm,Calm,-,0.00,Rain,Light Rain,0,2012-12-30 02:53:00
7:53 PM,41.0,37.0,86,30.18,10.0,Calm,Calm,-,0.01,,Overcast,0,2012-12-30 03:53:00
8:53 PM,41.0,37.0,86,30.20,5.0,Calm,Calm,-,0.00,Rain,Light Rain,0,2012-12-30 04:53:00
9:53 PM,41.0,37.0,86,30.22,7.0,Calm,Calm,-,0.00,,Overcast,0,2012-12-30 05:53:00
10:53 PM,42.1,37.9,85,30.23,8.0,Calm,Calm,-,0.01,,Overcast,0,2012-12-30 06:53:00
11:53 PM,42.1,37.9,85,30.24,8.0,Calm,Calm,-,N/A,,Overcast,0,2012-12-30 07:53:00